sensor_id;sensor_type;location;lat;lon;timestamp;pressure;altitude;pressure_sealevel;temperature
77223;BMP280;66218;48.928;9.140;2023-07-09T00:02:15;98902.16;;;22.94
77223;BMP280;66218;48.928;9.140;2023-07-09T00:04:40;98902.28;;;22.86
77223;BMP280;66218;48.928;9.140;2023-07-09T00:07:32;98909.22;;;22.91
77223;BMP280;66218;48.928;9.140;2023-07-09T00:09:57;98909.22;;;22.91
77223;BMP280;66218;48.928;9.140;2023-07-09T00:12:23;98900.88;;;22.87
77223;BMP280;66218;48.928;9.140;2023-07-09T00:14:49;98905.06;;;22.88
77223;BMP280;66218;48.928;9.140;2023-07-09T00:17:33;98898.78;;;22.85
77223;BMP280;66218;48.928;9.140;2023-07-09T00:19:59;98896.72;;;22.82
77223;BMP280;66218;48.928;9.140;2023-07-09T00:22:25;98898.22;;;22.76
77223;BMP280;66218;48.928;9.140;2023-07-09T00:24:52;98903.91;;;22.72
77223;BMP280;66218;48.928;9.140;2023-07-09T00:27:23;98913.19;;;22.67
77223;BMP280;66218;48.928;9.140;2023-07-09T00:29:51;98918.88;;;22.63
77223;BMP280;66218;48.928;9.140;2023-07-09T00:32:18;98916.16;;;22.57
77223;BMP280;66218;48.928;9.140;2023-07-09T00:34:48;98913.44;;;22.53
77223;BMP280;66218;48.928;9.140;2023-07-09T00:37:16;98913.44;;;22.53
77223;BMP280;66218;48.928;9.140;2023-07-09T00:39:43;98902.31;;;22.44
77223;BMP280;66218;48.928;9.140;2023-07-09T00:42:16;98910.03;;;22.42
77223;BMP280;66218;48.928;9.140;2023-07-09T00:44:53;98914.31;;;22.39
77223;BMP280;66218;48.928;9.140;2023-07-09T00:47:25;98924.28;;;22.30
77223;BMP280;66218;48.928;9.140;2023-07-09T00:49:59;98922.22;;;22.26
77223;BMP280;66218;48.928;9.140;2023-07-09T00:52:29;98922.22;;;22.26
77223;BMP280;66218;48.928;9.140;2023-07-09T00:54:59;98913.28;;;22.16
77223;BMP280;66218;48.928;9.140;2023-07-09T00:57:27;98918.28;;;22.09
77223;BMP280;66218;48.928;9.140;2023-07-09T00:59:57;98917.66;;;22.02
77223;BMP280;66218;48.928;9.140;2023-07-09T01:02:25;98910.72;;;21.97
77223;BMP280;66218;48.928;9.140;2023-07-09T01:04:52;98921.34;;;21.93
77223;BMP280;66218;48.928;9.140;2023-07-09T01:07:18;98924.19;;;21.87
77223;BMP280;66218;48.928;9.140;2023-07-09T01:09:45;98913.00;;;21.83
77223;BMP280;66218;48.928;9.140;2023-07-09T01:12:10;98915.88;;;21.78
77223;BMP280;66218;48.928;9.140;2023-07-09T01:14:36;98913.16;;;21.72
77223;BMP280;66218;48.928;9.140;2023-07-09T01:17:05;98909.69;;;21.68
77223;BMP280;66218;48.928;9.140;2023-07-09T01:19:43;98913.94;;;21.65
77223;BMP280;66218;48.928;9.140;2023-07-09T01:22:09;98910.50;;;21.60
77223;BMP280;66218;48.928;9.140;2023-07-09T01:24:49;98920.38;;;21.55
77223;BMP280;66218;48.928;9.140;2023-07-09T01:27:15;98924.63;;;21.52
77223;BMP280;66218;48.928;9.140;2023-07-09T01:29:42;98925.34;;;21.51
77223;BMP280;66218;48.928;9.140;2023-07-09T01:32:08;98925.34;;;21.51
77223;BMP280;66218;48.928;9.140;2023-07-09T01:34:35;98921.22;;;21.43
77223;BMP280;66218;48.928;9.140;2023-07-09T01:37:00;98922.63;;;21.42
77223;BMP280;66218;48.928;9.140;2023-07-09T01:39:27;98916.34;;;21.40
77223;BMP280;66218;48.928;9.140;2023-07-09T01:41:55;98922.72;;;21.36
77223;BMP280;66218;48.928;9.140;2023-07-09T01:44:22;98919.31;;;21.26
77223;BMP280;66218;48.928;9.140;2023-07-09T01:46:48;98921.53;;;21.15
77223;BMP280;66218;48.928;9.140;2023-07-09T01:49:13;98921.56;;;21.11
77223;BMP280;66218;48.928;9.140;2023-07-09T01:51:40;98916.00;;;21.07
77223;BMP280;66218;48.928;9.140;2023-07-09T01:54:05;98918.81;;;21.05
77223;BMP280;66218;48.928;9.140;2023-07-09T01:56:31;98923.75;;;21.04
77223;BMP280;66218;48.928;9.140;2023-07-09T01:58:56;98912.53;;;21.02
77223;BMP280;66218;48.928;9.140;2023-07-09T02:01:28;98915.34;;;21.00
77223;BMP280;66218;48.928;9.140;2023-07-09T02:03:53;98920.28;;;21.00
77223;BMP280;66218;48.928;9.140;2023-07-09T02:06:18;98919.53;;;21.03
77223;BMP280;66218;48.928;9.140;2023-07-09T02:08:45;98919.53;;;21.03
77223;BMP280;66218;48.928;9.140;2023-07-09T02:11:10;98923.06;;;21.00
77223;BMP280;66218;48.928;9.140;2023-07-09T02:13:35;98923.06;;;21.00
77223;BMP280;66218;48.928;9.140;2023-07-09T02:16:00;98928.72;;;20.96
77223;BMP280;66218;48.928;9.140;2023-07-09T02:18:28;98929.47;;;20.90
77223;BMP280;66218;48.928;9.140;2023-07-09T02:20:53;98926.00;;;20.86
77223;BMP280;66218;48.928;9.140;2023-07-09T02:23:18;98922.53;;;20.81
77223;BMP280;66218;48.928;9.140;2023-07-09T02:25:44;98928.16;;;20.79
77223;BMP280;66218;48.928;9.140;2023-07-09T02:28:09;98930.28;;;20.76
77223;BMP280;66218;48.928;9.140;2023-07-09T02:30:34;98930.28;;;20.76
77223;BMP280;66218;48.928;9.140;2023-07-09T02:33:00;98921.94;;;20.68
77223;BMP280;66218;48.928;9.140;2023-07-09T02:35:25;98926.16;;;20.65
77223;BMP280;66218;48.928;9.140;2023-07-09T02:37:50;98926.16;;;20.65
77223;BMP280;66218;48.928;9.140;2023-07-09T02:40:16;98924.84;;;20.56
77223;BMP280;66218;48.928;9.140;2023-07-09T02:42:41;98924.88;;;20.52
77223;BMP280;66218;48.928;9.140;2023-07-09T02:45:07;98929.09;;;20.47
77223;BMP280;66218;48.928;9.140;2023-07-09T02:47:32;98924.97;;;20.42
77223;BMP280;66218;48.928;9.140;2023-07-09T02:49:58;98925.66;;;20.40
77223;BMP280;66218;48.928;9.140;2023-07-09T02:52:23;98928.47;;;20.38
77223;BMP280;66218;48.928;9.140;2023-07-09T02:54:48;98922.22;;;20.34
77223;BMP280;66218;48.928;9.140;2023-07-09T02:57:14;98928.50;;;20.32
77223;BMP280;66218;48.928;9.140;2023-07-09T02:59:39;98923.59;;;20.31
77223;BMP280;66218;48.928;9.140;2023-07-09T03:02:04;98928.53;;;20.26
77223;BMP280;66218;48.928;9.140;2023-07-09T03:04:30;98932.06;;;20.23
77223;BMP280;66218;48.928;9.140;2023-07-09T03:06:56;98933.47;;;20.22
77223;BMP280;66218;48.928;9.140;2023-07-09T03:09:21;98927.19;;;20.19
77223;BMP280;66218;48.928;9.140;2023-07-09T03:11:47;98928.59;;;20.14
77223;BMP280;66218;48.928;9.140;2023-07-09T03:14:13;98935.63;;;20.11
77223;BMP280;66218;48.928;9.140;2023-07-09T03:16:39;98933.56;;;20.07
77223;BMP280;66218;48.928;9.140;2023-07-09T03:19:04;98926.56;;;20.04
77223;BMP280;66218;48.928;9.140;2023-07-09T03:21:30;98926.56;;;20.02
77223;BMP280;66218;48.928;9.140;2023-07-09T03:23:56;98930.78;;;19.97
77223;BMP280;66218;48.928;9.140;2023-07-09T03:26:22;98928.69;;;20.02
77223;BMP280;66218;48.928;9.140;2023-07-09T03:28:48;98933.59;;;20.03
77223;BMP280;66218;48.928;9.140;2023-07-09T03:31:14;98933.59;;;20.03
77223;BMP280;66218;48.928;9.140;2023-07-09T03:33:39;98931.50;;;19.98
77223;BMP280;66218;48.928;9.140;2023-07-09T03:36:05;98927.34;;;19.95
77223;BMP280;66218;48.928;9.140;2023-07-09T03:38:31;98925.22;;;19.93
77223;BMP280;66218;48.928;9.140;2023-07-09T03:40:56;98932.22;;;19.94
77223;BMP280;66218;48.928;9.140;2023-07-09T03:43:22;98939.19;;;19.97
77223;BMP280;66218;48.928;9.140;2023-07-09T03:45:49;98934.31;;;20.00
77223;BMP280;66218;48.928;9.140;2023-07-09T03:48:16;98936.41;;;19.99
77223;BMP280;66218;48.928;9.140;2023-07-09T03:50:43;98946.19;;;20.02
77223;BMP280;66218;48.928;9.140;2023-07-09T03:53:09;98944.75;;;20.05
77223;BMP280;66218;48.928;9.140;2023-07-09T03:55:34;98949.66;;;20.11
77223;BMP280;66218;48.928;9.140;2023-07-09T03:58:00;98948.94;;;20.14
77223;BMP280;66218;48.928;9.140;2023-07-09T04:00:27;98947.53;;;20.15
77223;BMP280;66218;48.928;9.140;2023-07-09T04:02:53;98948.72;;;20.47
77223;BMP280;66218;48.928;9.140;2023-07-09T04:05:18;98955.63;;;20.64
77223;BMP280;66218;48.928;9.140;2023-07-09T04:07:44;98959.44;;;21.10
77223;BMP280;66218;48.928;9.140;2023-07-09T04:10:10;98961.97;;;21.38
77223;BMP280;66218;48.928;9.140;2023-07-09T04:12:36;98961.06;;;21.60
77223;BMP280;66218;48.928;9.140;2023-07-09T04:15:03;98966.56;;;22.24
77223;BMP280;66218;48.928;9.140;2023-07-09T04:17:28;98974.94;;;23.16
77223;BMP280;66218;48.928;9.140;2023-07-09T04:19:54;98978.84;;;24.03
77223;BMP280;66218;48.928;9.140;2023-07-09T04:22:19;98977.34;;;24.68
77223;BMP280;66218;48.928;9.140;2023-07-09T04:24:44;98969.91;;;25.35
77223;BMP280;66218;48.928;9.140;2023-07-09T04:27:10;98985.47;;;26.09
77223;BMP280;66218;48.928;9.140;2023-07-09T04:29:36;98978.28;;;26.76
77223;BMP280;66218;48.928;9.140;2023-07-09T04:32:07;98979.59;;;27.40
77223;BMP280;66218;48.928;9.140;2023-07-09T04:34:32;98976.66;;;28.33
77223;BMP280;66218;48.928;9.140;2023-07-09T04:36:58;98983.31;;;28.61
77223;BMP280;66218;48.928;9.140;2023-07-09T04:39:23;98989.13;;;29.07
77223;BMP280;66218;48.928;9.140;2023-07-09T04:41:48;98993.81;;;29.61
77223;BMP280;66218;48.928;9.140;2023-07-09T04:44:14;99000.13;;;30.22
77223;BMP280;66218;48.928;9.140;2023-07-09T04:46:39;98986.25;;;31.26
77223;BMP280;66218;48.928;9.140;2023-07-09T04:49:05;98989.81;;;32.28
77223;BMP280;66218;48.928;9.140;2023-07-09T04:51:30;98989.38;;;32.82
77223;BMP280;66218;48.928;9.140;2023-07-09T04:53:55;98986.28;;;32.50
77223;BMP280;66218;48.928;9.140;2023-07-09T04:56:20;98994.63;;;32.54
77223;BMP280;66218;48.928;9.140;2023-07-09T04:58:46;98995.59;;;33.76
77223;BMP280;66218;48.928;9.140;2023-07-09T05:01:11;99002.91;;;34.28
77223;BMP280;66218;48.928;9.140;2023-07-09T05:03:36;98994.75;;;35.24
77223;BMP280;66218;48.928;9.140;2023-07-09T05:06:04;98997.53;;;35.84
77223;BMP280;66218;48.928;9.140;2023-07-09T05:08:29;98992.97;;;36.25
77223;BMP280;66218;48.928;9.140;2023-07-09T05:10:56;98998.19;;;36.51
77223;BMP280;66218;48.928;9.140;2023-07-09T05:13:22;98995.88;;;36.98
77223;BMP280;66218;48.928;9.140;2023-07-09T05:15:48;98998.41;;;36.29
77223;BMP280;66218;48.928;9.140;2023-07-09T05:18:14;99000.94;;;35.67
77223;BMP280;66218;48.928;9.140;2023-07-09T05:20:40;99000.94;;;35.48
77223;BMP280;66218;48.928;9.140;2023-07-09T05:23:07;99001.38;;;34.08
77223;BMP280;66218;48.928;9.140;2023-07-09T05:25:33;99007.59;;;32.28
77223;BMP280;66218;48.928;9.140;2023-07-09T05:27:58;99003.69;;;30.92
77223;BMP280;66218;48.928;9.140;2023-07-09T05:30:24;99003.84;;;29.89
77223;BMP280;66218;48.928;9.140;2023-07-09T05:32:49;99008.31;;;29.24
77223;BMP280;66218;48.928;9.140;2023-07-09T05:35:14;99003.97;;;28.60
77223;BMP280;66218;48.928;9.140;2023-07-09T05:37:40;99012.47;;;28.07
77223;BMP280;66218;48.928;9.140;2023-07-09T05:40:07;99009.66;;;27.70
77223;BMP280;66218;48.928;9.140;2023-07-09T05:42:33;99007.63;;;27.29
77223;BMP280;66218;48.928;9.140;2023-07-09T05:44:58;99013.22;;;27.10
77223;BMP280;66218;48.928;9.140;2023-07-09T05:47:25;99013.38;;;26.85
77223;BMP280;66218;48.928;9.140;2023-07-09T05:49:50;99009.81;;;26.87
77223;BMP280;66218;48.928;9.140;2023-07-09T05:52:20;99009.53;;;26.74
77223;BMP280;66218;48.928;9.140;2023-07-09T05:54:47;99010.47;;;26.67
77223;BMP280;66218;48.928;9.140;2023-07-09T05:57:13;99012.81;;;26.60
77223;BMP280;66218;48.928;9.140;2023-07-09T05:59:38;99006.84;;;26.70
77223;BMP280;66218;48.928;9.140;2023-07-09T06:02:04;99010.47;;;26.67
77223;BMP280;66218;48.928;9.140;2023-07-09T06:04:29;99012.53;;;26.68
77223;BMP280;66218;48.928;9.140;2023-07-09T06:06:56;99013.75;;;26.96
77223;BMP280;66218;48.928;9.140;2023-07-09T06:09:21;99013.63;;;27.00
77223;BMP280;66218;48.928;9.140;2023-07-09T06:11:47;99015.66;;;27.02
77223;BMP280;66218;48.928;9.140;2023-07-09T06:14:12;99009.81;;;27.08
77223;BMP280;66218;48.928;9.140;2023-07-09T06:16:37;99015.66;;;27.22
77223;BMP280;66218;48.928;9.140;2023-07-09T06:19:03;99013.91;;;27.31
77223;BMP280;66218;48.928;9.140;2023-07-09T06:21:28;99011.50;;;27.59
77223;BMP280;66218;48.928;9.140;2023-07-09T06:23:54;99023.59;;;27.57
77223;BMP280;66218;48.928;9.140;2023-07-09T06:26:19;99021.69;;;27.70
77223;BMP280;66218;48.928;9.140;2023-07-09T06:28:44;99021.78;;;27.87
77223;BMP280;66218;48.928;9.140;2023-07-09T06:31:10;99021.41;;;27.97
77223;BMP280;66218;48.928;9.140;2023-07-09T06:33:35;99021.56;;;28.10
77223;BMP280;66218;48.928;9.140;2023-07-09T06:36:01;99018.09;;;28.26
77223;BMP280;66218;48.928;9.140;2023-07-09T06:38:28;99019.47;;;28.63
77223;BMP280;66218;48.928;9.140;2023-07-09T06:40:54;99022.81;;;30.81
77223;BMP280;66218;48.928;9.140;2023-07-09T06:43:20;99011.25;;;32.98
77223;BMP280;66218;48.928;9.140;2023-07-09T06:48:14;99022.44;;;34.98
77223;BMP280;66218;48.928;9.140;2023-07-09T06:50:40;99019.88;;;34.94
77223;BMP280;66218;48.928;9.140;2023-07-09T06:53:05;99022.53;;;34.13
77223;BMP280;66218;48.928;9.140;2023-07-09T06:55:30;99011.00;;;33.26
77223;BMP280;66218;48.928;9.140;2023-07-09T06:57:56;99020.13;;;32.58
77223;BMP280;66218;48.928;9.140;2023-07-09T07:00:21;99016.41;;;32.24
77223;BMP280;66218;48.928;9.140;2023-07-09T07:02:47;99021.03;;;31.68
77223;BMP280;66218;48.928;9.140;2023-07-09T07:05:12;99024.53;;;31.43
77223;BMP280;66218;48.928;9.140;2023-07-09T07:07:37;99028.44;;;31.11
77223;BMP280;66218;48.928;9.140;2023-07-09T07:10:03;99022.03;;;30.83
77223;BMP280;66218;48.928;9.140;2023-07-09T07:12:29;99017.47;;;30.60
77223;BMP280;66218;48.928;9.140;2023-07-09T07:14:55;99032.69;;;30.55
77223;BMP280;66218;48.928;9.140;2023-07-09T07:17:21;99021.22;;;30.27
77223;BMP280;66218;48.928;9.140;2023-07-09T07:19:47;99020.84;;;30.06
77223;BMP280;66218;48.928;9.140;2023-07-09T07:22:13;99030.97;;;30.03
77223;BMP280;66218;48.928;9.140;2023-07-09T07:24:39;99017.97;;;29.77
77223;BMP280;66218;48.928;9.140;2023-07-09T07:27:05;99019.94;;;29.66
77223;BMP280;66218;48.928;9.140;2023-07-09T07:29:30;99014.72;;;29.70
77223;BMP280;66218;48.928;9.140;2023-07-09T07:31:55;99015.31;;;29.73
77223;BMP280;66218;48.928;9.140;2023-07-09T07:34:21;99011.38;;;29.80
77223;BMP280;66218;48.928;9.140;2023-07-09T07:36:49;99013.88;;;29.74
77223;BMP280;66218;48.928;9.140;2023-07-09T07:39:14;99013.06;;;29.75
77223;BMP280;66218;48.928;9.140;2023-07-09T07:41:40;99013.66;;;29.78
77223;BMP280;66218;48.928;9.140;2023-07-09T07:44:05;99012.50;;;29.87
77223;BMP280;66218;48.928;9.140;2023-07-09T07:46:32;99013.66;;;29.92
77223;BMP280;66218;48.928;9.140;2023-07-09T07:48:58;99012.00;;;29.98
77223;BMP280;66218;48.928;9.140;2023-07-09T07:51:23;99001.59;;;30.07
77223;BMP280;66218;48.928;9.140;2023-07-09T07:53:48;99009.84;;;30.13
77223;BMP280;66218;48.928;9.140;2023-07-09T07:56:14;99002.19;;;30.24
77223;BMP280;66218;48.928;9.140;2023-07-09T07:58:39;99000.63;;;30.27
77223;BMP280;66218;48.928;9.140;2023-07-09T08:01:05;99007.28;;;30.36
77223;BMP280;66218;48.928;9.140;2023-07-09T08:03:30;98992.03;;;30.42
77223;BMP280;66218;48.928;9.140;2023-07-09T08:05:55;98997.53;;;30.46
77223;BMP280;66218;48.928;9.140;2023-07-09T08:08:21;98984.97;;;30.41
77223;BMP280;66218;48.928;9.140;2023-07-09T08:10:46;98993.50;;;30.55
77223;BMP280;66218;48.928;9.140;2023-07-09T08:13:11;98990.16;;;30.65
77223;BMP280;66218;48.928;9.140;2023-07-09T08:15:38;98988.34;;;30.73
77223;BMP280;66218;48.928;9.140;2023-07-09T08:18:03;98983.81;;;30.78
77223;BMP280;66218;48.928;9.140;2023-07-09T08:20:29;98986.47;;;30.82
77223;BMP280;66218;48.928;9.140;2023-07-09T08:22:54;98986.66;;;30.78
77223;BMP280;66218;48.928;9.140;2023-07-09T08:25:19;98988.19;;;30.89
77223;BMP280;66218;48.928;9.140;2023-07-09T08:27:45;98981.38;;;30.97
77223;BMP280;66218;48.928;9.140;2023-07-09T08:30:10;98981.06;;;31.03
77223;BMP280;66218;48.928;9.140;2023-07-09T08:32:36;98984.94;;;31.10
77223;BMP280;66218;48.928;9.140;2023-07-09T08:35:01;98985.91;;;31.19
77223;BMP280;66218;48.928;9.140;2023-07-09T08:37:26;98992.53;;;31.28
77223;BMP280;66218;48.928;9.140;2023-07-09T08:39:51;98984.31;;;31.35
77223;BMP280;66218;48.928;9.140;2023-07-09T08:42:47;98986.28;;;31.38
77223;BMP280;66218;48.928;9.140;2023-07-09T08:48:01;98985.47;;;31.40
77223;BMP280;66218;48.928;9.140;2023-07-09T08:50:36;98987.56;;;31.54
77223;BMP280;66218;48.928;9.140;2023-07-09T08:53:04;98981.16;;;31.54
77223;BMP280;66218;48.928;9.140;2023-07-09T08:56:31;98984.91;;;31.50
77223;BMP280;66218;48.928;9.140;2023-07-09T08:59:00;98986.53;;;31.60
77223;BMP280;66218;48.928;9.140;2023-07-09T09:01:38;98984.25;;;31.75
77223;BMP280;66218;48.928;9.140;2023-07-09T09:04:23;98990.66;;;31.75
77223;BMP280;66218;48.928;9.140;2023-07-09T09:07:00;98988.03;;;31.84
77223;BMP280;66218;48.928;9.140;2023-07-09T09:09:29;98979.91;;;31.89
77223;BMP280;66218;48.928;9.140;2023-07-09T09:14:44;98974.75;;;32.04
77223;BMP280;66218;48.928;9.140;2023-07-09T09:17:19;98976.47;;;32.11
77223;BMP280;66218;48.928;9.140;2023-07-09T09:22:57;98976.78;;;32.31
77223;BMP280;66218;48.928;9.140;2023-07-09T09:25:28;98987.72;;;32.39
77223;BMP280;66218;48.928;9.140;2023-07-09T09:27:54;98992.44;;;32.55
77223;BMP280;66218;48.928;9.140;2023-07-09T09:30:24;98994.91;;;32.74
77223;BMP280;66218;48.928;9.140;2023-07-09T09:33:01;98979.31;;;32.83
77223;BMP280;66218;48.928;9.140;2023-07-09T09:35:35;98978.13;;;32.91
77223;BMP280;66218;48.928;9.140;2023-07-09T09:38:01;98978.41;;;32.97
77223;BMP280;66218;48.928;9.140;2023-07-09T09:40:29;98976.00;;;33.02
77223;BMP280;66218;48.928;9.140;2023-07-09T09:42:56;98982.22;;;33.17
77223;BMP280;66218;48.928;9.140;2023-07-09T09:45:37;98971.38;;;33.30
77223;BMP280;66218;48.928;9.140;2023-07-09T09:48:18;98979.41;;;33.28
77223;BMP280;66218;48.928;9.140;2023-07-09T09:50:45;98987.59;;;33.34
77223;BMP280;66218;48.928;9.140;2023-07-09T09:53:18;98987.44;;;33.36
77223;BMP280;66218;48.928;9.140;2023-07-09T09:55:45;98977.53;;;33.45
77223;BMP280;66218;48.928;9.140;2023-07-09T09:58:14;98975.81;;;33.51
77223;BMP280;66218;48.928;9.140;2023-07-09T10:00:39;98970.59;;;33.42
77223;BMP280;66218;48.928;9.140;2023-07-09T10:03:05;98968.44;;;33.54
77223;BMP280;66218;48.928;9.140;2023-07-09T10:05:45;98973.09;;;33.59
77223;BMP280;66218;48.928;9.140;2023-07-09T10:08:53;98967.28;;;33.72
77223;BMP280;66218;48.928;9.140;2023-07-09T10:14:33;98956.00;;;33.47
77223;BMP280;66218;48.928;9.140;2023-07-09T10:17:36;98962.34;;;33.70
77223;BMP280;66218;48.928;9.140;2023-07-09T10:22:43;98954.31;;;33.83
77223;BMP280;66218;48.928;9.140;2023-07-09T10:26:08;98952.13;;;33.84
77223;BMP280;66218;48.928;9.140;2023-07-09T10:28:27;98943.69;;;34.03
77223;BMP280;66218;48.928;9.140;2023-07-09T10:38:46;98936.56;;;34.13
77223;BMP280;66218;48.928;9.140;2023-07-09T10:41:17;98934.94;;;34.37
77223;BMP280;66218;48.928;9.140;2023-07-09T10:44:16;98939.03;;;34.30
77223;BMP280;66218;48.928;9.140;2023-07-09T10:46:48;98933.00;;;34.34
77223;BMP280;66218;48.928;9.140;2023-07-09T10:49:15;98930.94;;;34.53
77223;BMP280;66218;48.928;9.140;2023-07-09T10:51:48;98929.81;;;34.59
77223;BMP280;66218;48.928;9.140;2023-07-09T10:56:47;98920.72;;;34.86
77223;BMP280;66218;48.928;9.140;2023-07-09T10:59:40;98920.38;;;34.71
77223;BMP280;66218;48.928;9.140;2023-07-09T11:02:24;98919.72;;;34.60
77223;BMP280;66218;48.928;9.140;2023-07-09T11:05:01;98919.22;;;34.47
77223;BMP280;66218;48.928;9.140;2023-07-09T11:07:42;98914.25;;;34.56
77223;BMP280;66218;48.928;9.140;2023-07-09T11:10:22;98910.94;;;34.73
77223;BMP280;66218;48.928;9.140;2023-07-09T11:13:05;98906.91;;;34.89
77223;BMP280;66218;48.928;9.140;2023-07-09T11:15:37;98900.22;;;34.92
77223;BMP280;66218;48.928;9.140;2023-07-09T11:18:06;98903.22;;;34.90
77223;BMP280;66218;48.928;9.140;2023-07-09T11:20:36;98901.41;;;34.95
77223;BMP280;66218;48.928;9.140;2023-07-09T11:23:20;98900.25;;;34.82
77223;BMP280;66218;48.928;9.140;2023-07-09T11:25:48;98905.41;;;34.90
77223;BMP280;66218;48.928;9.140;2023-07-09T11:28:14;98901.59;;;34.83
77223;BMP280;66218;48.928;9.140;2023-07-09T11:30:52;98901.94;;;34.98
77223;BMP280;66218;48.928;9.140;2023-07-09T11:33:26;98897.53;;;35.10
77223;BMP280;66218;48.928;9.140;2023-07-09T11:36:23;98906.44;;;35.05
77223;BMP280;66218;48.928;9.140;2023-07-09T11:38:46;98902.06;;;34.77
77223;BMP280;66218;48.928;9.140;2023-07-09T11:44:03;98891.59;;;34.62
77223;BMP280;66218;48.928;9.140;2023-07-09T11:46:30;98890.13;;;34.83
77223;BMP280;66218;48.928;9.140;2023-07-09T11:48:57;98885.88;;;34.92
77223;BMP280;66218;48.928;9.140;2023-07-09T11:51:38;98887.13;;;35.15
77223;BMP280;66218;48.928;9.140;2023-07-09T11:54:05;98883.41;;;35.16
77223;BMP280;66218;48.928;9.140;2023-07-09T11:58:57;98878.44;;;35.25
77223;BMP280;66218;48.928;9.140;2023-07-09T12:01:44;98873.59;;;35.32
77223;BMP280;66218;48.928;9.140;2023-07-09T12:04:17;98876.63;;;35.30
77223;BMP280;66218;48.928;9.140;2023-07-09T12:06:45;98878.66;;;35.51
77223;BMP280;66218;48.928;9.140;2023-07-09T12:09:18;98879.72;;;35.75
77223;BMP280;66218;48.928;9.140;2023-07-09T12:11:48;98873.75;;;35.49
77223;BMP280;66218;48.928;9.140;2023-07-09T12:14:19;98872.97;;;35.60
77223;BMP280;66218;48.928;9.140;2023-07-09T12:16:47;98871.00;;;35.67
77223;BMP280;66218;48.928;9.140;2023-07-09T12:19:15;98861.25;;;35.72
77223;BMP280;66218;48.928;9.140;2023-07-09T12:21:43;98856.47;;;35.69
77223;BMP280;66218;48.928;9.140;2023-07-09T12:26:55;98856.69;;;35.95
77223;BMP280;66218;48.928;9.140;2023-07-09T12:29:25;98854.72;;;36.10
77223;BMP280;66218;48.928;9.140;2023-07-09T12:31:51;98857.28;;;36.14
77223;BMP280;66218;48.928;9.140;2023-07-09T12:34:16;98855.84;;;35.96
77223;BMP280;66218;48.928;9.140;2023-07-09T12:36:50;98848.91;;;36.29
77223;BMP280;66218;48.928;9.140;2023-07-09T12:39:31;98852.16;;;36.34
77223;BMP280;66218;48.928;9.140;2023-07-09T12:42:00;98842.88;;;36.42
77223;BMP280;66218;48.928;9.140;2023-07-09T12:44:30;98837.59;;;36.36
77223;BMP280;66218;48.928;9.140;2023-07-09T12:46:56;98838.63;;;36.41
77223;BMP280;66218;48.928;9.140;2023-07-09T12:49:27;98833.28;;;36.54
77223;BMP280;66218;48.928;9.140;2023-07-09T12:51:57;98825.53;;;36.61
77223;BMP280;66218;48.928;9.140;2023-07-09T12:54:23;98833.53;;;36.87
77223;BMP280;66218;48.928;9.140;2023-07-09T12:56:55;98833.66;;;36.67
77223;BMP280;66218;48.928;9.140;2023-07-09T12:59:23;98833.16;;;36.73
77223;BMP280;66218;48.928;9.140;2023-07-09T13:02:00;98831.84;;;37.07
77223;BMP280;66218;48.928;9.140;2023-07-09T13:04:37;98826.75;;;37.25
77223;BMP280;66218;48.928;9.140;2023-07-09T13:07:03;98816.59;;;37.08
77223;BMP280;66218;48.928;9.140;2023-07-09T13:09:29;98803.06;;;37.15
77223;BMP280;66218;48.928;9.140;2023-07-09T13:11:55;98799.16;;;37.28
77223;BMP280;66218;48.928;9.140;2023-07-09T13:14:26;98805.28;;;37.24
77223;BMP280;66218;48.928;9.140;2023-07-09T13:16:52;98800.00;;;37.09
77223;BMP280;66218;48.928;9.140;2023-07-09T13:19:18;98795.97;;;37.14
77223;BMP280;66218;48.928;9.140;2023-07-09T13:21:44;98791.53;;;37.33
77223;BMP280;66218;48.928;9.140;2023-07-09T13:24:15;98782.38;;;37.47
77223;BMP280;66218;48.928;9.140;2023-07-09T13:26:41;98788.28;;;37.54
77223;BMP280;66218;48.928;9.140;2023-07-09T13:29:14;98779.69;;;37.45
77223;BMP280;66218;48.928;9.140;2023-07-09T13:31:41;98787.56;;;37.79
77223;BMP280;66218;48.928;9.140;2023-07-09T13:34:18;98789.28;;;37.68
77223;BMP280;66218;48.928;9.140;2023-07-09T13:36:43;98785.66;;;37.84
77223;BMP280;66218;48.928;9.140;2023-07-09T13:39:12;98778.91;;;38.12
77223;BMP280;66218;48.928;9.140;2023-07-09T13:41:45;98788.47;;;38.34
77223;BMP280;66218;48.928;9.140;2023-07-09T13:44:15;98780.03;;;38.56
77223;BMP280;66218;48.928;9.140;2023-07-09T13:46:41;98778.91;;;38.68
77223;BMP280;66218;48.928;9.140;2023-07-09T13:49:15;98773.56;;;38.79
77223;BMP280;66218;48.928;9.140;2023-07-09T13:51:41;98778.16;;;39.15
77223;BMP280;66218;48.928;9.140;2023-07-09T13:54:24;98772.19;;;39.02
77223;BMP280;66218;48.928;9.140;2023-07-09T13:56:50;98770.59;;;39.26
77223;BMP280;66218;48.928;9.140;2023-07-09T13:59:21;98768.50;;;39.64
77223;BMP280;66218;48.928;9.140;2023-07-09T14:01:50;98767.03;;;39.56
77223;BMP280;66218;48.928;9.140;2023-07-09T14:04:17;98766.56;;;39.38
77223;BMP280;66218;48.928;9.140;2023-07-09T14:06:43;98757.03;;;39.55
77223;BMP280;66218;48.928;9.140;2023-07-09T14:09:10;98760.66;;;39.32
77223;BMP280;66218;48.928;9.140;2023-07-09T14:11:41;98758.25;;;39.65
77223;BMP280;66218;48.928;9.140;2023-07-09T14:14:21;98759.22;;;39.85
77223;BMP280;66218;48.928;9.140;2023-07-09T14:16:48;98755.56;;;39.78
77223;BMP280;66218;48.928;9.140;2023-07-09T14:19:18;98747.22;;;40.04
77223;BMP280;66218;48.928;9.140;2023-07-09T14:21:45;98747.78;;;40.35
77223;BMP280;66218;48.928;9.140;2023-07-09T14:24:24;98748.59;;;40.70
77223;BMP280;66218;48.928;9.140;2023-07-09T14:26:51;98741.91;;;40.72
77223;BMP280;66218;48.928;9.140;2023-07-09T14:29:16;98734.34;;;41.03
77223;BMP280;66218;48.928;9.140;2023-07-09T14:31:44;98729.84;;;40.98
77223;BMP280;66218;48.928;9.140;2023-07-09T14:36:38;98728.50;;;40.68
77223;BMP280;66218;48.928;9.140;2023-07-09T14:39:09;98720.84;;;40.87
77223;BMP280;66218;48.928;9.140;2023-07-09T14:41:34;98724.03;;;40.63
77223;BMP280;66218;48.928;9.140;2023-07-09T14:44:00;98724.31;;;40.46
77223;BMP280;66218;48.928;9.140;2023-07-09T14:46:25;98721.47;;;40.52
77223;BMP280;66218;48.928;9.140;2023-07-09T14:48:50;98720.88;;;40.58
77223;BMP280;66218;48.928;9.140;2023-07-09T14:51:16;98720.97;;;40.71
77223;BMP280;66218;48.928;9.140;2023-07-09T14:53:41;98724.53;;;40.72
77223;BMP280;66218;48.928;9.140;2023-07-09T14:56:07;98727.16;;;40.67